Monday, January 26, 2015, 3:20 AM EST

KESN, Easton / Newman Field

Location: Easton, MD, United States Lat: 38.8
Local Time: 3:20 AM EST ( 8:20 GMT) Lon: -76.067
Time Zone: US/Eastern Elev: 72 ft

Show me the last for .
Show Decoded

2015-01-26 03:12 METAR KESN 260813Z AUTO 10006KT 10SM OVC050 06/02 A2987 RMK AO2 T00570021 =
2015-01-26 03:10 METAR KESN 260813Z AUTO 10006KT 10SM OVC050 06/02 A2987 =
2015-01-26 02:53 METAR KESN 260753Z AUTO 10006KT 10SM OVC050 06/02 A2988 RMK AO2 T00570021 =
2015-01-26 02:28 METAR KESN 260733Z AUTO 11004KT 10SM OVC050 06/02 A2989 =
2015-01-26 02:26 METAR KESN 260733Z AUTO 11004KT 10SM OVC050 06/02 A2989 RMK AO2 T00580020 =
2015-01-26 02:10 METAR KESN 260713Z AUTO 12004KT 10SM OVC050 06/02 A2989 =
2015-01-26 02:07 METAR KESN 260713Z AUTO 12004KT 10SM OVC050 06/02 A2989 RMK AO2 T00590018 =
2015-01-26 01:53 METAR KESN 260653Z AUTO 15005KT 10SM OVC050 06/02 A2990 RMK AO2 T00600018 =
2015-01-26 01:12 METAR KESN 260612Z AUTO 17005KT 10SM OVC050 06/02 A2990 =
2015-01-26 01:06 METAR KESN 260612Z AUTO 17005KT 10SM OVC050 06/02 A2990 RMK AO2 T00600016 =
2015-01-26 00:52 METAR KESN 260552Z AUTO 17005KT 10SM OVC050 06/02 A2990 RMK AO2 T00600015 =
2015-01-26 00:28 METAR KESN 260532Z AUTO 16008KT 10SM OVC050 06/01 A2990 =
2015-01-26 00:26 METAR KESN 260532Z AUTO 16008KT 10SM OVC050 06/01 A2990 RMK AO2 T00610013 =
2015-01-26 00:11 METAR KESN 260512Z AUTO 17006KT 10SM OVC050 06/01 A2991 =
2015-01-26 00:06 METAR KESN 260512Z AUTO 17006KT 10SM OVC050 06/01 A2991 RMK AO2 T00600012 =
2015-01-25 23:52 METAR KESN 260452Z AUTO 16005KT 10SM OVC050 06/01 A2992 RMK AO2 T00600010 =
2015-01-25 23:31 METAR KESN 260432Z AUTO 16005KT 10SM OVC050 06/01 A2992 =
2015-01-25 23:29 METAR KESN 260432Z AUTO 16005KT 10SM OVC050 06/01 A2992 RMK AO2 T00600010 =
2015-01-25 23:12 METAR KESN 260412Z AUTO 15005KT 10SM OVC050 06/01 A2991 RMK AO2 T00610007 =
2015-01-25 23:11 METAR KESN 260412Z AUTO 15005KT 10SM OVC050 06/01 A2991 =
2015-01-25 22:52 METAR KESN 260352Z AUTO 15005KT 10SM OVC050 06/01 A2992 RMK AO2 T00630007 =
2015-01-25 22:29 METAR KESN 260332Z AUTO 18005KT 10SM OVC050 06/01 A2993 =
2015-01-25 22:27 METAR KESN 260332Z AUTO 18005KT 10SM OVC050 06/01 A2993 RMK AO2 T00630009 =
2015-01-25 22:12 METAR KESN 260312Z AUTO 16004KT 10SM OVC050 06/01 A2992 =
2015-01-25 22:06 METAR KESN 260312Z AUTO 16004KT 10SM OVC050 06/01 A2992 RMK AO2 T00620010 =
2015-01-25 20:53 METAR KESN 260153Z 15003KT 10SM OVC050 07/01 A2992 =
2015-01-25 19:53 METAR KESN 260053Z 17004KT 10SM OVC050 07/00 A2992 =
2015-01-25 18:50 METAR KESN 252350Z 18005KT 10SM OVC050 08/00 A2991 =
2015-01-25 17:50 METAR KESN 252250Z 20005KT 10SM OVC050 08/01 A2989 =
2015-01-25 16:50 METAR KESN 252150Z 23005KT 10SM OVC050 09/02 A2988 =
2015-01-25 15:50 METAR KESN 252050Z 22006KT 10SM OVC050 09/01 A2987 =
2015-01-25 14:50 METAR KESN 251950Z 21006KT 10SM SCT050 10/00 A2986 =
2015-01-25 13:50 METAR KESN 251850Z 21006KT 10SM OVC047 09/00 A2986 =
2015-01-25 12:50 METAR KESN 251750Z 22011KT 10SM BKN047 09/00 A2989 =
2015-01-25 11:55 METAR KESN 251655Z 23007KT 10SM SKC 09/00 A2989 =
2015-01-25 10:50 METAR KESN 251550Z 25006KT 10SM SKC 08/00 A2989 =
2015-01-25 09:50 METAR KESN 251450Z 26009KT 10SM SCT050 07/00 A2989 =
2015-01-25 08:50 METAR KESN 251350Z 24007KT 10SM BKN048 05/00 A2987 =
2015-01-25 07:50 METAR KESN 251250Z 24007KT 10SM OVC048 03/00 A2988 =
2015-01-25 06:50 METAR KESN 251150Z 25004KT 10SM OVC046 03/00 A2986 =
2015-01-25 05:50 METAR KESN 251050Z AUTO 25006KT 10SM OVC050 04/00 A2982 RMK AO2 T00361002 =
2015-01-25 05:27 METAR KESN 251030Z AUTO 26006KT 10SM OVC050 03/00 A2981 =
2015-01-25 05:22 METAR KESN 251030Z AUTO 26006KT 10SM OVC050 03/00 A2981 RMK AO2 T00301001 =
2015-01-25 05:10 METAR KESN 251010Z AUTO 26005KT 10SM SCT050 03/M01 A2980 RMK AO2 T00251006 =
2015-01-25 04:50 METAR KESN 250950Z AUTO 28006KT 10SM CLR 03/M01 A2979 RMK AO2 T00321007 =
2015-01-25 04:26 METAR KESN 250930Z AUTO 29005KT 10SM CLR 03/M01 A2978 =
2015-01-25 04:22 METAR KESN 250930Z AUTO 29005KT 10SM CLR 03/M01 A2978 RMK AO2 T00321007 =
2015-01-25 04:09 METAR KESN 250910Z AUTO 29005KT 10SM CLR 04/M01 A2977 =
2015-01-25 04:06 METAR KESN 250910Z AUTO 29005KT 10SM CLR 04/M01 A2977 RMK AO2 T00361006 =
2015-01-25 03:50 METAR KESN 250850Z AUTO 30009KT 10SM CLR 04/M01 A2977 RMK AO2 T00371006 =
2015-01-25 03:26 METAR KESN 250830Z AUTO 30006KT 10SM BKN070 04/00 A2976 =
2015-01-25 03:24 METAR KESN 250830Z AUTO 30006KT 10SM BKN070 04/00 A2976 RMK AO2 T00391005 =

Support USWX by starting your Amazon purchase here.